sensor_id;sensor_type;location;lat;lon;timestamp;P1;durP1;ratioP1;P2;durP2;ratioP2
29412;SDS011;16389;50.126;8.450;2024-02-28T00:02:05;16.92;;;12.55;;
29412;SDS011;16389;50.126;8.450;2024-02-28T00:04:30;16.42;;;12.63;;
29412;SDS011;16389;50.126;8.450;2024-02-28T00:06:56;18.77;;;13.23;;
29412;SDS011;16389;50.126;8.450;2024-02-28T00:09:22;18.83;;;12.10;;
29412;SDS011;16389;50.126;8.450;2024-02-28T00:11:48;17.13;;;11.70;;
29412;SDS011;16389;50.126;8.450;2024-02-28T00:14:13;17.35;;;12.70;;
29412;SDS011;16389;50.126;8.450;2024-02-28T00:16:40;16.33;;;12.48;;
29412;SDS011;16389;50.126;8.450;2024-02-28T00:19:06;15.77;;;12.73;;
29412;SDS011;16389;50.126;8.450;2024-02-28T00:21:32;21.13;;;14.13;;
29412;SDS011;16389;50.126;8.450;2024-02-28T00:23:58;21.27;;;14.13;;
29412;SDS011;16389;50.126;8.450;2024-02-28T00:26:23;17.52;;;13.98;;
29412;SDS011;16389;50.126;8.450;2024-02-28T00:28:49;25.00;;;15.82;;
29412;SDS011;16389;50.126;8.450;2024-02-28T00:31:14;18.65;;;13.88;;
29412;SDS011;16389;50.126;8.450;2024-02-28T00:33:40;18.40;;;13.98;;
29412;SDS011;16389;50.126;8.450;2024-02-28T00:36:05;19.35;;;14.20;;
29412;SDS011;16389;50.126;8.450;2024-02-28T00:38:31;27.88;;;15.57;;
29412;SDS011;16389;50.126;8.450;2024-02-28T00:40:57;20.30;;;14.05;;
29412;SDS011;16389;50.126;8.450;2024-02-28T00:43:22;22.83;;;14.73;;
29412;SDS011;16389;50.126;8.450;2024-02-28T00:45:48;20.90;;;15.30;;
29412;SDS011;16389;50.126;8.450;2024-02-28T00:48:14;20.25;;;13.90;;
29412;SDS011;16389;50.126;8.450;2024-02-28T00:50:39;22.30;;;15.48;;
29412;SDS011;16389;50.126;8.450;2024-02-28T00:53:05;23.42;;;15.43;;
29412;SDS011;16389;50.126;8.450;2024-02-28T00:55:30;20.88;;;15.52;;
29412;SDS011;16389;50.126;8.450;2024-02-28T00:57:56;17.80;;;14.43;;
29412;SDS011;16389;50.126;8.450;2024-02-28T01:00:22;23.15;;;16.05;;
29412;SDS011;16389;50.126;8.450;2024-02-28T01:02:47;18.65;;;13.73;;
29412;SDS011;16389;50.126;8.450;2024-02-28T01:05:13;20.92;;;14.13;;
29412;SDS011;16389;50.126;8.450;2024-02-28T01:07:39;24.80;;;15.23;;
29412;SDS011;16389;50.126;8.450;2024-02-28T01:10:04;25.33;;;16.27;;
29412;SDS011;16389;50.126;8.450;2024-02-28T01:12:31;22.88;;;16.05;;
29412;SDS011;16389;50.126;8.450;2024-02-28T01:14:56;23.77;;;15.27;;
29412;SDS011;16389;50.126;8.450;2024-02-28T01:17:22;26.20;;;16.35;;
29412;SDS011;16389;50.126;8.450;2024-02-28T01:19:47;28.70;;;16.98;;
29412;SDS011;16389;50.126;8.450;2024-02-28T01:22:13;28.27;;;16.80;;
29412;SDS011;16389;50.126;8.450;2024-02-28T01:24:39;27.02;;;16.05;;
29412;SDS011;16389;50.126;8.450;2024-02-28T01:27:04;27.65;;;17.25;;
29412;SDS011;16389;50.126;8.450;2024-02-28T01:29:30;24.23;;;15.43;;
29412;SDS011;16389;50.126;8.450;2024-02-28T01:31:56;28.55;;;17.65;;
29412;SDS011;16389;50.126;8.450;2024-02-28T01:34:21;30.00;;;18.13;;
29412;SDS011;16389;50.126;8.450;2024-02-28T01:36:47;26.42;;;16.65;;
29412;SDS011;16389;50.126;8.450;2024-02-28T01:39:13;35.15;;;19.27;;
29412;SDS011;16389;50.126;8.450;2024-02-28T01:41:41;31.98;;;19.10;;
29412;SDS011;16389;50.126;8.450;2024-02-28T01:44:08;33.15;;;18.17;;
29412;SDS011;16389;50.126;8.450;2024-02-28T01:46:33;31.75;;;18.58;;
29412;SDS011;16389;50.126;8.450;2024-02-28T01:49:00;29.58;;;17.85;;
29412;SDS011;16389;50.126;8.450;2024-02-28T01:51:26;28.92;;;17.92;;
29412;SDS011;16389;50.126;8.450;2024-02-28T01:53:52;37.90;;;20.77;;
29412;SDS011;16389;50.126;8.450;2024-02-28T01:56:20;45.72;;;21.90;;
29412;SDS011;16389;50.126;8.450;2024-02-28T01:58:47;35.17;;;20.10;;
29412;SDS011;16389;50.126;8.450;2024-02-28T02:01:16;44.72;;;21.77;;
29412;SDS011;16389;50.126;8.450;2024-02-28T02:03:42;45.20;;;24.08;;
29412;SDS011;16389;50.126;8.450;2024-02-28T02:06:08;55.10;;;25.27;;
29412;SDS011;16389;50.126;8.450;2024-02-28T02:08:36;55.15;;;24.95;;
29412;SDS011;16389;50.126;8.450;2024-02-28T02:11:02;54.53;;;25.60;;
29412;SDS011;16389;50.126;8.450;2024-02-28T02:13:28;60.95;;;26.90;;
29412;SDS011;16389;50.126;8.450;2024-02-28T02:15:53;64.55;;;27.08;;
29412;SDS011;16389;50.126;8.450;2024-02-28T02:18:19;65.68;;;27.80;;
29412;SDS011;16389;50.126;8.450;2024-02-28T02:20:46;59.05;;;25.50;;
29412;SDS011;16389;50.126;8.450;2024-02-28T02:23:19;64.00;;;27.90;;
29412;SDS011;16389;50.126;8.450;2024-02-28T02:25:45;64.22;;;27.77;;
29412;SDS011;16389;50.126;8.450;2024-02-28T02:28:11;61.95;;;26.30;;
29412;SDS011;16389;50.126;8.450;2024-02-28T02:30:37;63.78;;;28.13;;
29412;SDS011;16389;50.126;8.450;2024-02-28T02:33:04;68.70;;;30.90;;
29412;SDS011;16389;50.126;8.450;2024-02-28T02:35:33;56.92;;;27.75;;
29412;SDS011;16389;50.126;8.450;2024-02-28T02:37:59;67.32;;;30.08;;
29412;SDS011;16389;50.126;8.450;2024-02-28T02:40:25;63.65;;;28.27;;
29412;SDS011;16389;50.126;8.450;2024-02-28T02:42:51;63.28;;;25.85;;
29412;SDS011;16389;50.126;8.450;2024-02-28T02:45:16;59.20;;;27.05;;
29412;SDS011;16389;50.126;8.450;2024-02-28T02:47:42;63.33;;;26.80;;
29412;SDS011;16389;50.126;8.450;2024-02-28T02:50:10;72.13;;;30.42;;
29412;SDS011;16389;50.126;8.450;2024-02-28T02:52:36;68.35;;;29.73;;
29412;SDS011;16389;50.126;8.450;2024-02-28T02:55:02;59.88;;;27.52;;
29412;SDS011;16389;50.126;8.450;2024-02-28T02:57:28;66.25;;;28.45;;
29412;SDS011;16389;50.126;8.450;2024-02-28T02:59:57;57.30;;;26.92;;
29412;SDS011;16389;50.126;8.450;2024-02-28T03:02:22;64.68;;;27.83;;
29412;SDS011;16389;50.126;8.450;2024-02-28T03:04:48;59.95;;;25.55;;
29412;SDS011;16389;50.126;8.450;2024-02-28T03:07:13;65.20;;;29.10;;
29412;SDS011;16389;50.126;8.450;2024-02-28T03:09:39;62.85;;;25.90;;
29412;SDS011;16389;50.126;8.450;2024-02-28T03:12:06;55.30;;;25.00;;
29412;SDS011;16389;50.126;8.450;2024-02-28T03:14:32;62.25;;;26.83;;
29412;SDS011;16389;50.126;8.450;2024-02-28T03:16:58;64.18;;;26.45;;
29412;SDS011;16389;50.126;8.450;2024-02-28T03:19:23;60.33;;;26.00;;
29412;SDS011;16389;50.126;8.450;2024-02-28T03:21:49;51.15;;;23.15;;
29412;SDS011;16389;50.126;8.450;2024-02-28T03:24:14;52.22;;;24.45;;
29412;SDS011;16389;50.126;8.450;2024-02-28T03:26:40;56.15;;;24.42;;
29412;SDS011;16389;50.126;8.450;2024-02-28T03:29:05;57.95;;;25.20;;
29412;SDS011;16389;50.126;8.450;2024-02-28T03:31:31;56.45;;;24.00;;
29412;SDS011;16389;50.126;8.450;2024-02-28T03:33:57;58.90;;;23.38;;
29412;SDS011;16389;50.126;8.450;2024-02-28T03:36:22;56.50;;;24.70;;
29412;SDS011;16389;50.126;8.450;2024-02-28T03:38:48;55.97;;;23.33;;
29412;SDS011;16389;50.126;8.450;2024-02-28T03:41:13;60.13;;;24.23;;
29412;SDS011;16389;50.126;8.450;2024-02-28T03:43:39;56.03;;;22.83;;
29412;SDS011;16389;50.126;8.450;2024-02-28T03:46:05;65.05;;;25.33;;
29412;SDS011;16389;50.126;8.450;2024-02-28T03:48:30;62.33;;;24.10;;
29412;SDS011;16389;50.126;8.450;2024-02-28T03:50:56;51.17;;;22.58;;
29412;SDS011;16389;50.126;8.450;2024-02-28T03:53:21;53.47;;;23.08;;
29412;SDS011;16389;50.126;8.450;2024-02-28T03:55:47;57.15;;;22.65;;
29412;SDS011;16389;50.126;8.450;2024-02-28T03:58:12;65.13;;;24.77;;
29412;SDS011;16389;50.126;8.450;2024-02-28T04:00:38;62.33;;;25.92;;
29412;SDS011;16389;50.126;8.450;2024-02-28T04:03:04;65.15;;;25.75;;
29412;SDS011;16389;50.126;8.450;2024-02-28T04:05:30;62.95;;;24.05;;
29412;SDS011;16389;50.126;8.450;2024-02-28T04:07:56;62.40;;;24.20;;
29412;SDS011;16389;50.126;8.450;2024-02-28T04:10:21;68.60;;;24.88;;
29412;SDS011;16389;50.126;8.450;2024-02-28T04:12:47;71.22;;;24.95;;
29412;SDS011;16389;50.126;8.450;2024-02-28T04:15:14;58.88;;;21.98;;
29412;SDS011;16389;50.126;8.450;2024-02-28T04:17:40;64.65;;;24.38;;
29412;SDS011;16389;50.126;8.450;2024-02-28T04:20:09;64.40;;;23.83;;
29412;SDS011;16389;50.126;8.450;2024-02-28T04:22:38;66.03;;;23.60;;
29412;SDS011;16389;50.126;8.450;2024-02-28T04:25:04;57.40;;;21.98;;
29412;SDS011;16389;50.126;8.450;2024-02-28T04:27:31;53.03;;;23.33;;
29412;SDS011;16389;50.126;8.450;2024-02-28T04:29:57;53.70;;;22.10;;
29412;SDS011;16389;50.126;8.450;2024-02-28T04:32:23;57.10;;;23.83;;
29412;SDS011;16389;50.126;8.450;2024-02-28T04:34:49;55.42;;;22.02;;
29412;SDS011;16389;50.126;8.450;2024-02-28T04:37:14;61.88;;;24.50;;
29412;SDS011;16389;50.126;8.450;2024-02-28T04:39:40;55.83;;;21.95;;
29412;SDS011;16389;50.126;8.450;2024-02-28T04:42:05;61.40;;;21.83;;
29412;SDS011;16389;50.126;8.450;2024-02-28T04:44:31;57.47;;;21.67;;
29412;SDS011;16389;50.126;8.450;2024-02-28T04:46:57;50.38;;;20.27;;
29412;SDS011;16389;50.126;8.450;2024-02-28T04:49:22;60.30;;;22.73;;
29412;SDS011;16389;50.126;8.450;2024-02-28T04:51:48;53.53;;;21.08;;
29412;SDS011;16389;50.126;8.450;2024-02-28T04:54:13;52.05;;;20.83;;
29412;SDS011;16389;50.126;8.450;2024-02-28T04:56:40;60.25;;;23.10;;
29412;SDS011;16389;50.126;8.450;2024-02-28T04:59:07;56.30;;;21.58;;
29412;SDS011;16389;50.126;8.450;2024-02-28T05:01:33;51.80;;;20.13;;
29412;SDS011;16389;50.126;8.450;2024-02-28T05:04:00;51.28;;;20.02;;
29412;SDS011;16389;50.126;8.450;2024-02-28T05:06:25;60.42;;;20.05;;
29412;SDS011;16389;50.126;8.450;2024-02-28T05:08:51;59.83;;;20.95;;
29412;SDS011;16389;50.126;8.450;2024-02-28T05:11:16;54.22;;;22.25;;
29412;SDS011;16389;50.126;8.450;2024-02-28T05:13:42;59.33;;;21.05;;
29412;SDS011;16389;50.126;8.450;2024-02-28T05:16:14;50.20;;;19.40;;
29412;SDS011;16389;50.126;8.450;2024-02-28T05:18:40;57.30;;;20.40;;
29412;SDS011;16389;50.126;8.450;2024-02-28T05:21:05;50.92;;;19.85;;
29412;SDS011;16389;50.126;8.450;2024-02-28T05:23:31;50.95;;;19.52;;
29412;SDS011;16389;50.126;8.450;2024-02-28T05:25:57;54.47;;;20.60;;
29412;SDS011;16389;50.126;8.450;2024-02-28T05:28:23;56.67;;;20.58;;
29412;SDS011;16389;50.126;8.450;2024-02-28T05:30:49;51.67;;;19.73;;
29412;SDS011;16389;50.126;8.450;2024-02-28T05:33:15;47.85;;;18.75;;
29412;SDS011;16389;50.126;8.450;2024-02-28T05:35:40;55.10;;;19.70;;
29412;SDS011;16389;50.126;8.450;2024-02-28T05:38:06;49.65;;;18.30;;
29412;SDS011;16389;50.126;8.450;2024-02-28T05:40:32;50.45;;;19.08;;
29412;SDS011;16389;50.126;8.450;2024-02-28T05:42:58;53.25;;;20.77;;
29412;SDS011;16389;50.126;8.450;2024-02-28T05:45:23;55.50;;;19.90;;
29412;SDS011;16389;50.126;8.450;2024-02-28T05:47:49;48.22;;;19.60;;
29412;SDS011;16389;50.126;8.450;2024-02-28T05:50:14;54.15;;;20.40;;
29412;SDS011;16389;50.126;8.450;2024-02-28T05:52:43;55.75;;;20.92;;
29412;SDS011;16389;50.126;8.450;2024-02-28T05:55:09;49.97;;;19.40;;
29412;SDS011;16389;50.126;8.450;2024-02-28T05:57:35;56.80;;;20.77;;
29412;SDS011;16389;50.126;8.450;2024-02-28T06:00:00;51.67;;;19.38;;
29412;SDS011;16389;50.126;8.450;2024-02-28T06:02:30;47.40;;;18.73;;
29412;SDS011;16389;50.126;8.450;2024-02-28T06:04:55;49.25;;;19.25;;
29412;SDS011;16389;50.126;8.450;2024-02-28T06:07:21;45.50;;;16.27;;
29412;SDS011;16389;50.126;8.450;2024-02-28T06:09:46;56.30;;;20.10;;
29412;SDS011;16389;50.126;8.450;2024-02-28T06:12:12;57.03;;;19.85;;
29412;SDS011;16389;50.126;8.450;2024-02-28T06:14:37;50.38;;;19.63;;
29412;SDS011;16389;50.126;8.450;2024-02-28T06:17:03;59.33;;;21.90;;
29412;SDS011;16389;50.126;8.450;2024-02-28T06:19:28;63.22;;;20.20;;
29412;SDS011;16389;50.126;8.450;2024-02-28T06:21:54;63.90;;;22.90;;
29412;SDS011;16389;50.126;8.450;2024-02-28T06:24:20;67.95;;;20.98;;
29412;SDS011;16389;50.126;8.450;2024-02-28T06:26:45;65.47;;;23.40;;
29412;SDS011;16389;50.126;8.450;2024-02-28T06:29:11;71.07;;;24.13;;
29412;SDS011;16389;50.126;8.450;2024-02-28T06:31:39;64.32;;;21.33;;
29412;SDS011;16389;50.126;8.450;2024-02-28T06:34:04;61.85;;;20.50;;
29412;SDS011;16389;50.126;8.450;2024-02-28T06:36:32;66.60;;;21.00;;
29412;SDS011;16389;50.126;8.450;2024-02-28T06:38:58;75.82;;;23.42;;
29412;SDS011;16389;50.126;8.450;2024-02-28T06:41:23;63.58;;;21.30;;
29412;SDS011;16389;50.126;8.450;2024-02-28T06:43:49;75.78;;;22.25;;
29412;SDS011;16389;50.126;8.450;2024-02-28T06:46:14;73.43;;;23.55;;
29412;SDS011;16389;50.126;8.450;2024-02-28T06:48:40;71.05;;;22.23;;
29412;SDS011;16389;50.126;8.450;2024-02-28T06:51:05;78.63;;;23.42;;
29412;SDS011;16389;50.126;8.450;2024-02-28T06:53:31;65.70;;;22.52;;
29412;SDS011;16389;50.126;8.450;2024-02-28T06:55:56;71.45;;;22.58;;
29412;SDS011;16389;50.126;8.450;2024-02-28T06:58:22;77.18;;;22.90;;
29412;SDS011;16389;50.126;8.450;2024-02-28T07:00:49;76.70;;;22.63;;
29412;SDS011;16389;50.126;8.450;2024-02-28T07:03:16;65.53;;;22.25;;
29412;SDS011;16389;50.126;8.450;2024-02-28T07:05:42;64.38;;;22.15;;
29412;SDS011;16389;50.126;8.450;2024-02-28T07:08:08;67.07;;;21.45;;
29412;SDS011;16389;50.126;8.450;2024-02-28T07:10:35;70.13;;;21.65;;
29412;SDS011;16389;50.126;8.450;2024-02-28T07:13:01;66.85;;;19.65;;
29412;SDS011;16389;50.126;8.450;2024-02-28T07:15:27;61.05;;;20.48;;
29412;SDS011;16389;50.126;8.450;2024-02-28T07:17:53;56.15;;;20.25;;
29412;SDS011;16389;50.126;8.450;2024-02-28T07:20:18;59.83;;;20.55;;
29412;SDS011;16389;50.126;8.450;2024-02-28T07:22:44;53.92;;;19.23;;
29412;SDS011;16389;50.126;8.450;2024-02-28T07:25:11;59.33;;;21.40;;
29412;SDS011;16389;50.126;8.450;2024-02-28T07:27:37;50.75;;;19.92;;
29412;SDS011;16389;50.126;8.450;2024-02-28T07:30:02;55.58;;;21.60;;
29412;SDS011;16389;50.126;8.450;2024-02-28T07:32:28;44.47;;;18.40;;
29412;SDS011;16389;50.126;8.450;2024-02-28T07:34:59;50.03;;;19.50;;
29412;SDS011;16389;50.126;8.450;2024-02-28T07:37:25;51.72;;;18.55;;
29412;SDS011;16389;50.126;8.450;2024-02-28T07:39:51;51.88;;;19.48;;
29412;SDS011;16389;50.126;8.450;2024-02-28T07:42:17;44.72;;;18.70;;
29412;SDS011;16389;50.126;8.450;2024-02-28T07:44:42;50.55;;;19.50;;
29412;SDS011;16389;50.126;8.450;2024-02-28T07:47:08;58.70;;;18.77;;
29412;SDS011;16389;50.126;8.450;2024-02-28T07:49:34;48.22;;;19.63;;
29412;SDS011;16389;50.126;8.450;2024-02-28T07:51:59;45.05;;;18.23;;
29412;SDS011;16389;50.126;8.450;2024-02-28T07:54:25;50.05;;;18.88;;
29412;SDS011;16389;50.126;8.450;2024-02-28T07:56:52;55.88;;;18.85;;
29412;SDS011;16389;50.126;8.450;2024-02-28T07:59:18;42.83;;;17.52;;
29412;SDS011;16389;50.126;8.450;2024-02-28T08:01:44;48.88;;;20.42;;
29412;SDS011;16389;50.126;8.450;2024-02-28T08:04:10;37.58;;;16.58;;
29412;SDS011;16389;50.126;8.450;2024-02-28T08:06:35;44.22;;;18.55;;
29412;SDS011;16389;50.126;8.450;2024-02-28T08:09:01;40.17;;;17.70;;
29412;SDS011;16389;50.126;8.450;2024-02-28T08:11:29;40.83;;;17.08;;
29412;SDS011;16389;50.126;8.450;2024-02-28T08:13:55;33.60;;;15.70;;
29412;SDS011;16389;50.126;8.450;2024-02-28T08:16:20;34.90;;;17.02;;
29412;SDS011;16389;50.126;8.450;2024-02-28T08:18:46;33.67;;;16.65;;
29412;SDS011;16389;50.126;8.450;2024-02-28T08:21:12;30.70;;;16.95;;
29412;SDS011;16389;50.126;8.450;2024-02-28T08:23:37;29.33;;;17.05;;
29412;SDS011;16389;50.126;8.450;2024-02-28T08:26:03;24.95;;;15.15;;
29412;SDS011;16389;50.126;8.450;2024-02-28T08:28:29;30.15;;;16.00;;
29412;SDS011;16389;50.126;8.450;2024-02-28T08:30:54;29.23;;;16.10;;
29412;SDS011;16389;50.126;8.450;2024-02-28T08:33:20;29.85;;;15.02;;
29412;SDS011;16389;50.126;8.450;2024-02-28T08:35:45;25.38;;;14.93;;
29412;SDS011;16389;50.126;8.450;2024-02-28T08:38:11;25.15;;;15.70;;
29412;SDS011;16389;50.126;8.450;2024-02-28T08:40:37;23.20;;;14.60;;
29412;SDS011;16389;50.126;8.450;2024-02-28T08:43:03;24.15;;;16.10;;
29412;SDS011;16389;50.126;8.450;2024-02-28T08:45:28;24.73;;;16.45;;
29412;SDS011;16389;50.126;8.450;2024-02-28T08:47:54;24.90;;;16.52;;
29412;SDS011;16389;50.126;8.450;2024-02-28T08:50:19;22.38;;;15.65;;
29412;SDS011;16389;50.126;8.450;2024-02-28T08:52:45;25.77;;;17.52;;
29412;SDS011;16389;50.126;8.450;2024-02-28T08:55:10;24.55;;;16.20;;
29412;SDS011;16389;50.126;8.450;2024-02-28T08:57:36;23.00;;;15.40;;
29412;SDS011;16389;50.126;8.450;2024-02-28T09:00:02;25.63;;;15.30;;
29412;SDS011;16389;50.126;8.450;2024-02-28T09:02:28;24.17;;;16.48;;
29412;SDS011;16389;50.126;8.450;2024-02-28T09:04:54;24.67;;;15.95;;
29412;SDS011;16389;50.126;8.450;2024-02-28T09:07:21;23.63;;;16.95;;
29412;SDS011;16389;50.126;8.450;2024-02-28T09:09:47;24.90;;;16.10;;
29412;SDS011;16389;50.126;8.450;2024-02-28T09:12:14;24.77;;;17.42;;
29412;SDS011;16389;50.126;8.450;2024-02-28T09:14:39;27.80;;;18.45;;
29412;SDS011;16389;50.126;8.450;2024-02-28T09:17:05;24.40;;;16.52;;
29412;SDS011;16389;50.126;8.450;2024-02-28T09:19:31;24.02;;;15.93;;
29412;SDS011;16389;50.126;8.450;2024-02-28T09:21:57;27.63;;;17.85;;
29412;SDS011;16389;50.126;8.450;2024-02-28T09:24:23;22.85;;;14.30;;
29412;SDS011;16389;50.126;8.450;2024-02-28T09:26:49;20.33;;;14.13;;
29412;SDS011;16389;50.126;8.450;2024-02-28T09:29:15;22.15;;;14.63;;
29412;SDS011;16389;50.126;8.450;2024-02-28T09:31:41;27.27;;;14.82;;
29412;SDS011;16389;50.126;8.450;2024-02-28T09:34:06;19.63;;;13.68;;
29412;SDS011;16389;50.126;8.450;2024-02-28T09:36:47;21.08;;;14.55;;
29412;SDS011;16389;50.126;8.450;2024-02-28T09:39:12;17.75;;;14.10;;
29412;SDS011;16389;50.126;8.450;2024-02-28T09:41:38;19.88;;;13.98;;
29412;SDS011;16389;50.126;8.450;2024-02-28T09:44:04;21.17;;;13.73;;
29412;SDS011;16389;50.126;8.450;2024-02-28T09:46:32;23.90;;;14.82;;
29412;SDS011;16389;50.126;8.450;2024-02-28T09:49:03;17.33;;;12.20;;
29412;SDS011;16389;50.126;8.450;2024-02-28T09:51:33;21.60;;;13.68;;
29412;SDS011;16389;50.126;8.450;2024-02-28T09:56:27;23.98;;;13.95;;
29412;SDS011;16389;50.126;8.450;2024-02-28T09:58:53;21.92;;;14.40;;
29412;SDS011;16389;50.126;8.450;2024-02-28T10:01:20;20.08;;;14.90;;
29412;SDS011;16389;50.126;8.450;2024-02-28T10:03:47;19.55;;;13.77;;
29412;SDS011;16389;50.126;8.450;2024-02-28T10:06:17;16.67;;;12.38;;
29412;SDS011;16389;50.126;8.450;2024-02-28T10:08:43;17.58;;;13.02;;
29412;SDS011;16389;50.126;8.450;2024-02-28T10:11:16;24.98;;;13.85;;
29412;SDS011;16389;50.126;8.450;2024-02-28T10:13:49;17.92;;;13.10;;
29412;SDS011;16389;50.126;8.450;2024-02-28T10:16:15;16.40;;;12.50;;
29412;SDS011;16389;50.126;8.450;2024-02-28T10:18:44;15.68;;;13.00;;
29412;SDS011;16389;50.126;8.450;2024-02-28T10:21:10;15.73;;;12.23;;
29412;SDS011;16389;50.126;8.450;2024-02-28T10:23:43;13.88;;;11.48;;
29412;SDS011;16389;50.126;8.450;2024-02-28T10:26:09;13.38;;;11.82;;
29412;SDS011;16389;50.126;8.450;2024-02-28T10:28:39;16.10;;;12.30;;
29412;SDS011;16389;50.126;8.450;2024-02-28T10:31:09;14.38;;;12.00;;
29412;SDS011;16389;50.126;8.450;2024-02-28T10:33:35;13.80;;;11.25;;
29412;SDS011;16389;50.126;8.450;2024-02-28T10:36:04;14.65;;;11.45;;
29412;SDS011;16389;50.126;8.450;2024-02-28T10:38:30;13.07;;;11.70;;
29412;SDS011;16389;50.126;8.450;2024-02-28T10:41:01;19.77;;;14.90;;
29412;SDS011;16389;50.126;8.450;2024-02-28T10:43:30;18.50;;;16.40;;
29412;SDS011;16389;50.126;8.450;2024-02-28T10:45:59;19.77;;;17.27;;
29412;SDS011;16389;50.126;8.450;2024-02-28T10:48:25;19.47;;;17.53;;
29412;SDS011;16389;50.126;8.450;2024-02-28T10:50:52;22.05;;;17.48;;
29412;SDS011;16389;50.126;8.450;2024-02-28T10:53:21;21.75;;;17.33;;
29412;SDS011;16389;50.126;8.450;2024-02-28T10:55:51;20.13;;;18.02;;
29412;SDS011;16389;50.126;8.450;2024-02-28T10:58:23;19.70;;;17.63;;
29412;SDS011;16389;50.126;8.450;2024-02-28T11:00:51;19.63;;;17.42;;
29412;SDS011;16389;50.126;8.450;2024-02-28T11:03:17;19.80;;;16.90;;
29412;SDS011;16389;50.126;8.450;2024-02-28T11:05:44;19.42;;;17.48;;
29412;SDS011;16389;50.126;8.450;2024-02-28T11:08:20;18.80;;;16.90;;
29412;SDS011;16389;50.126;8.450;2024-02-28T11:10:47;18.70;;;16.92;;
29412;SDS011;16389;50.126;8.450;2024-02-28T11:13:26;19.20;;;17.38;;
29412;SDS011;16389;50.126;8.450;2024-02-28T11:15:52;18.95;;;17.20;;
29412;SDS011;16389;50.126;8.450;2024-02-28T11:18:20;19.20;;;17.48;;
29412;SDS011;16389;50.126;8.450;2024-02-28T11:20:45;19.38;;;17.67;;
29412;SDS011;16389;50.126;8.450;2024-02-28T11:23:13;19.13;;;17.35;;
29412;SDS011;16389;50.126;8.450;2024-02-28T11:25:39;19.20;;;17.65;;
29412;SDS011;16389;50.126;8.450;2024-02-28T11:28:05;19.23;;;17.35;;
29412;SDS011;16389;50.126;8.450;2024-02-28T11:30:32;20.27;;;18.30;;
29412;SDS011;16389;50.126;8.450;2024-02-28T11:32:58;19.48;;;17.95;;
29412;SDS011;16389;50.126;8.450;2024-02-28T11:35:27;18.92;;;17.17;;
29412;SDS011;16389;50.126;8.450;2024-02-28T11:37:53;19.30;;;17.80;;
29412;SDS011;16389;50.126;8.450;2024-02-28T11:40:22;17.95;;;16.42;;
29412;SDS011;16389;50.126;8.450;2024-02-28T11:42:56;18.95;;;17.35;;
29412;SDS011;16389;50.126;8.450;2024-02-28T11:45:22;19.10;;;17.50;;
29412;SDS011;16389;50.126;8.450;2024-02-28T11:47:48;18.48;;;16.73;;
29412;SDS011;16389;50.126;8.450;2024-02-28T11:50:14;20.85;;;19.02;;
29412;SDS011;16389;50.126;8.450;2024-02-28T11:52:43;19.90;;;18.20;;
29412;SDS011;16389;50.126;8.450;2024-02-28T11:55:09;19.42;;;17.92;;
29412;SDS011;16389;50.126;8.450;2024-02-28T11:57:36;17.52;;;16.23;;
29412;SDS011;16389;50.126;8.450;2024-02-28T12:00:11;17.92;;;16.55;;
29412;SDS011;16389;50.126;8.450;2024-02-28T12:02:40;18.25;;;16.48;;
29412;SDS011;16389;50.126;8.450;2024-02-28T12:05:06;18.38;;;17.08;;
29412;SDS011;16389;50.126;8.450;2024-02-28T12:07:32;17.42;;;16.23;;
29412;SDS011;16389;50.126;8.450;2024-02-28T12:09:58;18.88;;;17.10;;
29412;SDS011;16389;50.126;8.450;2024-02-28T12:12:24;18.55;;;17.15;;
29412;SDS011;16389;50.126;8.450;2024-02-28T12:14:51;17.33;;;16.05;;
29412;SDS011;16389;50.126;8.450;2024-02-28T12:17:17;18.67;;;17.13;;
29412;SDS011;16389;50.126;8.450;2024-02-28T12:19:43;18.25;;;16.90;;
29412;SDS011;16389;50.126;8.450;2024-02-28T12:22:09;18.48;;;17.08;;
29412;SDS011;16389;50.126;8.450;2024-02-28T12:24:36;18.35;;;17.02;;
29412;SDS011;16389;50.126;8.450;2024-02-28T12:27:01;18.25;;;16.95;;
29412;SDS011;16389;50.126;8.450;2024-02-28T12:29:27;19.60;;;17.92;;
29412;SDS011;16389;50.126;8.450;2024-02-28T12:31:52;18.17;;;16.77;;
29412;SDS011;16389;50.126;8.450;2024-02-28T12:34:18;18.48;;;17.17;;
29412;SDS011;16389;50.126;8.450;2024-02-28T12:36:44;18.90;;;17.40;;
29412;SDS011;16389;50.126;8.450;2024-02-28T12:39:09;19.02;;;17.63;;
29412;SDS011;16389;50.126;8.450;2024-02-28T12:41:38;19.45;;;18.10;;
29412;SDS011;16389;50.126;8.450;2024-02-28T12:44:05;20.27;;;18.63;;
29412;SDS011;16389;50.126;8.450;2024-02-28T12:46:31;19.80;;;18.00;;
29412;SDS011;16389;50.126;8.450;2024-02-28T12:48:56;19.83;;;18.08;;
29412;SDS011;16389;50.126;8.450;2024-02-28T12:54:09;21.02;;;18.25;;
29412;SDS011;16389;50.126;8.450;2024-02-28T12:56:38;19.73;;;17.65;;
29412;SDS011;16389;50.126;8.450;2024-02-28T12:59:05;19.30;;;17.38;;
29412;SDS011;16389;50.126;8.450;2024-02-28T13:01:34;25.42;;;19.25;;
29412;SDS011;16389;50.126;8.450;2024-02-28T13:03:59;19.63;;;17.63;;
29412;SDS011;16389;50.126;8.450;2024-02-28T13:06:25;18.73;;;16.67;;
29412;SDS011;16389;50.126;8.450;2024-02-28T13:08:52;19.55;;;17.52;;
29412;SDS011;16389;50.126;8.450;2024-02-28T13:11:21;17.83;;;16.13;;
29412;SDS011;16389;50.126;8.450;2024-02-28T13:13:48;23.35;;;16.38;;
29412;SDS011;16389;50.126;8.450;2024-02-28T13:16:14;20.55;;;17.73;;
29412;SDS011;16389;50.126;8.450;2024-02-28T13:18:43;19.08;;;15.73;;
29412;SDS011;16389;50.126;8.450;2024-02-28T13:21:09;21.95;;;15.65;;
29412;SDS011;16389;50.126;8.450;2024-02-28T13:23:36;19.42;;;15.90;;
29412;SDS011;16389;50.126;8.450;2024-02-28T13:26:05;16.83;;;15.25;;
29412;SDS011;16389;50.126;8.450;2024-02-28T13:28:31;16.90;;;15.20;;
29412;SDS011;16389;50.126;8.450;2024-02-28T13:30:57;21.30;;;16.58;;
29412;SDS011;16389;50.126;8.450;2024-02-28T13:33:26;16.08;;;14.48;;
29412;SDS011;16389;50.126;8.450;2024-02-28T13:35:52;14.40;;;13.07;;
29412;SDS011;16389;50.126;8.450;2024-02-28T13:38:19;15.35;;;12.88;;
29412;SDS011;16389;50.126;8.450;2024-02-28T13:40:46;14.02;;;12.52;;
29412;SDS011;16389;50.126;8.450;2024-02-28T13:43:15;14.13;;;12.82;;
29412;SDS011;16389;50.126;8.450;2024-02-28T13:45:49;15.15;;;13.55;;
29412;SDS011;16389;50.126;8.450;2024-02-28T13:48:23;13.75;;;12.13;;
29412;SDS011;16389;50.126;8.450;2024-02-28T13:50:50;14.73;;;13.23;;
29412;SDS011;16389;50.126;8.450;2024-02-28T13:53:16;15.70;;;14.07;;
29412;SDS011;16389;50.126;8.450;2024-02-28T13:55:42;15.38;;;13.82;;
29412;SDS011;16389;50.126;8.450;2024-02-28T13:58:08;15.18;;;13.68;;
29412;SDS011;16389;50.126;8.450;2024-02-28T14:00:36;15.30;;;13.70;;
29412;SDS011;16389;50.126;8.450;2024-02-28T14:03:01;14.13;;;12.57;;
29412;SDS011;16389;50.126;8.450;2024-02-28T14:05:28;13.15;;;11.85;;
29412;SDS011;16389;50.126;8.450;2024-02-28T14:07:54;13.00;;;11.82;;
29412;SDS011;16389;50.126;8.450;2024-02-28T14:10:20;13.45;;;12.18;;
29412;SDS011;16389;50.126;8.450;2024-02-28T14:12:47;12.80;;;11.52;;
29412;SDS011;16389;50.126;8.450;2024-02-28T14:15:13;13.07;;;11.88;;
29412;SDS011;16389;50.126;8.450;2024-02-28T14:17:39;13.30;;;11.95;;
29412;SDS011;16389;50.126;8.450;2024-02-28T14:20:05;12.27;;;11.20;;
29412;SDS011;16389;50.126;8.450;2024-02-28T14:22:32;12.35;;;10.68;;